createdAt,value
2022-08-18T00:00:17.746Z,5.95
2022-08-18T00:03:00.486Z,5.35
2022-08-18T00:05:31.793Z,6.00
2022-08-18T00:08:01.206Z,5.70
2022-08-18T00:10:33.689Z,5.63
2022-08-18T00:13:02.869Z,5.80
2022-08-18T00:15:31.851Z,5.88
2022-08-18T00:18:10.830Z,5.57
2022-08-18T00:20:40.788Z,6.22
2022-08-18T00:23:12.178Z,5.80
2022-08-18T00:25:47.701Z,6.07
2022-08-18T00:28:16.879Z,5.45
2022-08-18T00:30:45.767Z,5.82
2022-08-18T00:33:17.535Z,5.95
2022-08-18T00:35:46.170Z,6.15
2022-08-18T00:38:24.590Z,5.97
2022-08-18T00:40:59.279Z,5.75
2022-08-18T00:43:39.859Z,6.10
2022-08-18T00:46:10.229Z,5.57
2022-08-18T00:48:38.508Z,5.93
2022-08-18T00:51:15.364Z,5.68
2022-08-18T00:53:52.776Z,6.32
2022-08-18T00:56:30.684Z,6.15
2022-08-18T00:59:07.363Z,6.25
2022-08-18T01:01:40.566Z,7.88
2022-08-18T01:04:14.351Z,6.60
2022-08-18T01:06:52.576Z,6.47
2022-08-18T01:09:22.060Z,6.07
2022-08-18T01:11:52.710Z,6.50
2022-08-18T01:14:21.957Z,6.85
2022-08-18T01:17:09.826Z,6.65
2022-08-18T01:19:56.645Z,7.10
2022-08-18T01:22:35.607Z,6.20
2022-08-18T01:25:26.763Z,6.88
2022-08-18T01:27:59.747Z,7.28
2022-08-18T01:30:32.999Z,7.40
2022-08-18T01:33:06.196Z,7.40
2022-08-18T01:35:41.753Z,7.25
2022-08-18T01:38:13.942Z,7.40
2022-08-18T01:41:22.677Z,7.40
2022-08-18T01:43:46.705Z,6.97
2022-08-18T01:46:25.893Z,7.45
2022-08-18T01:48:56.168Z,6.72
2022-08-18T01:51:38.050Z,7.40
2022-08-18T01:54:13.464Z,8.00
2022-08-18T01:56:45.021Z,7.18
2022-08-18T01:59:16.195Z,7.20
2022-08-18T02:01:52.936Z,7.25
2022-08-18T02:04:36.644Z,8.07
2022-08-18T02:07:13.175Z,7.20
2022-08-18T02:09:46.723Z,8.30
2022-08-18T02:12:21.772Z,7.40
2022-08-18T02:14:51.867Z,7.30
2022-08-18T02:17:23.173Z,7.57
2022-08-18T02:19:52.416Z,7.60
2022-08-18T02:22:23.856Z,8.52
2022-08-18T02:24:52.982Z,8.55
2022-08-18T02:27:24.510Z,8.98
2022-08-18T02:29:53.317Z,7.90
2022-08-18T02:32:21.848Z,7.35
2022-08-18T02:34:52.985Z,8.00
2022-08-18T02:37:24.394Z,8.23
2022-08-18T02:39:53.496Z,8.45
2022-08-18T02:42:23.677Z,7.93
2022-08-18T02:44:55.476Z,8.05
2022-08-18T02:47:24.759Z,7.85
2022-08-18T02:49:55.570Z,8.02
2022-08-18T02:52:26.450Z,8.13
2022-08-18T02:54:54.954Z,8.02
2022-08-18T02:57:25.621Z,7.55
2022-08-18T02:59:55.120Z,8.70
2022-08-18T03:02:24.525Z,7.68
2022-08-18T03:04:56.393Z,8.73
2022-08-18T03:07:27.872Z,7.85
2022-08-18T03:09:56.361Z,8.30
2022-08-18T03:12:26.671Z,7.80
2022-08-18T03:14:58.722Z,7.97
2022-08-18T03:17:27.973Z,8.07
2022-08-18T03:19:58.800Z,7.82
2022-08-18T03:22:31.032Z,8.27
2022-08-18T03:25:01.230Z,7.88
2022-08-18T03:27:32.268Z,8.45
2022-08-18T03:30:01.363Z,8.02
2022-08-18T03:32:31.680Z,8.07
2022-08-18T03:35:00.885Z,9.10
2022-08-18T03:37:32.782Z,9.30
2022-08-18T03:40:04.854Z,9.55
2022-08-18T03:42:36.445Z,10.63
2022-08-18T03:45:13.254Z,9.82
2022-08-18T03:47:53.826Z,11.18
2022-08-18T03:50:25.686Z,11.02
2022-08-18T03:52:55.565Z,10.63
2022-08-18T03:55:24.868Z,10.63
2022-08-18T03:57:55.603Z,10.85
2022-08-18T04:00:24.609Z,11.10
2022-08-18T04:02:57.515Z,10.07
2022-08-18T04:05:28.109Z,10.63
2022-08-18T04:07:59.378Z,10.88
2022-08-18T04:10:28.047Z,10.77
2022-08-18T04:13:06.692Z,10.35
2022-08-18T04:15:39.230Z,10.40
2022-08-18T04:18:14.394Z,10.32
2022-08-18T04:20:58.915Z,9.63
2022-08-18T04:23:29.351Z,9.40
2022-08-18T04:26:04.391Z,9.30
2022-08-18T04:28:35.016Z,9.13
2022-08-18T04:31:10.785Z,9.80
2022-08-18T04:33:42.098Z,9.60
2022-08-18T04:36:20.615Z,10.52
2022-08-18T04:38:50.141Z,10.20
2022-08-18T04:41:27.938Z,10.55
2022-08-18T04:44:01.556Z,10.35
2022-08-18T04:46:38.150Z,10.57
2022-08-18T04:49:09.777Z,10.32
2022-08-18T04:52:37.936Z,11.68
2022-08-18T04:54:30.589Z,10.20
2022-08-18T04:56:59.063Z,10.20
2022-08-18T04:59:31.879Z,10.35
2022-08-18T05:02:06.046Z,9.93
2022-08-18T05:04:36.634Z,10.32
2022-08-18T05:07:07.442Z,9.70
2022-08-18T05:09:41.741Z,9.70
2022-08-18T05:12:14.738Z,10.43
2022-08-18T05:14:47.094Z,10.60
2022-08-18T05:17:19.472Z,10.25
2022-08-18T05:19:50.152Z,9.30
2022-08-18T05:22:28.470Z,8.98
2022-08-18T05:25:00.218Z,9.35
2022-08-18T05:27:35.967Z,9.52
2022-08-18T05:30:09.291Z,9.20
2022-08-18T05:32:47.859Z,8.82
2022-08-18T05:35:27.370Z,8.15
2022-08-18T05:38:24.496Z,7.28
2022-08-18T05:41:08.806Z,7.95
2022-08-18T05:43:51.744Z,7.93
2022-08-18T05:46:28.462Z,7.57
2022-08-18T05:48:57.846Z,6.40
2022-08-18T05:51:32.495Z,6.90
2022-08-18T05:54:22.320Z,6.47
2022-08-18T05:56:56.588Z,6.68
2022-08-18T05:59:30.752Z,6.32
2022-08-18T06:02:13.118Z,5.80
2022-08-18T06:04:52.934Z,5.78
2022-08-18T06:07:36.189Z,5.75
2022-08-18T06:10:17.190Z,5.90
2022-08-18T06:12:51.369Z,5.13
2022-08-18T06:15:28.118Z,5.53
2022-08-18T06:18:34.709Z,5.25
2022-08-18T06:21:38.781Z,4.97
2022-08-18T06:24:18.630Z,4.63
2022-08-18T06:27:04.163Z,4.70
2022-08-18T06:29:54.954Z,5.13
2022-08-18T06:32:36.957Z,4.90
2022-08-18T06:35:19.324Z,5.00
2022-08-18T06:38:25.324Z,4.90
2022-08-18T06:41:42.147Z,4.63
2022-08-18T06:44:12.363Z,5.38
2022-08-18T06:46:53.677Z,4.40
2022-08-18T06:49:40.929Z,4.55
2022-08-18T06:52:36.652Z,4.38
2022-08-18T06:55:11.401Z,3.63
2022-08-18T06:57:54.463Z,4.28
2022-08-18T07:00:32.548Z,4.30
2022-08-18T07:03:09.315Z,4.10
2022-08-18T07:06:02.484Z,3.90
2022-08-18T07:08:36.553Z,3.80
2022-08-18T07:11:21.236Z,3.92
2022-08-18T07:14:15.558Z,4.00
2022-08-18T07:16:59.030Z,3.90
2022-08-18T07:19:33.888Z,3.53
2022-08-18T07:22:11.667Z,3.60
2022-08-18T07:24:46.104Z,3.20
2022-08-18T07:27:18.660Z,3.53
2022-08-18T07:30:06.945Z,3.65
2022-08-18T07:32:43.825Z,3.63
2022-08-18T07:35:20.130Z,3.50
2022-08-18T07:37:56.189Z,3.47
2022-08-18T07:40:35.120Z,3.08
2022-08-18T07:43:14.573Z,3.30
2022-08-18T07:45:46.530Z,3.00
2022-08-18T07:51:27.107Z,3.50
2022-08-18T07:54:45.500Z,3.40
2022-08-18T07:57:20.318Z,3.33
2022-08-18T08:00:02.989Z,3.08
2022-08-18T08:02:54.724Z,3.60
2022-08-18T08:05:46.658Z,3.30
2022-08-18T08:08:25.439Z,3.15
2022-08-18T08:11:11.363Z,2.70
2022-08-18T08:16:40.680Z,2.80
2022-08-18T08:19:56.664Z,2.80
2022-08-18T08:22:30.987Z,2.75
2022-08-18T08:25:35.097Z,3.20
2022-08-18T08:28:19.039Z,2.95
2022-08-18T08:31:25.834Z,2.83
2022-08-18T08:34:02.837Z,2.90
2022-08-18T08:36:40.977Z,2.67
2022-08-18T08:41:52.941Z,3.00
2022-08-18T08:44:58.164Z,2.38
2022-08-18T08:47:37.219Z,2.22
2022-08-18T08:50:13.270Z,2.30
2022-08-18T08:52:47.180Z,2.25
2022-08-18T08:55:25.607Z,2.53
2022-08-18T08:58:10.962Z,2.58
2022-08-18T09:00:41.478Z,2.10
2022-08-18T09:03:33.465Z,2.13
2022-08-18T09:06:22.057Z,2.45
2022-08-18T09:09:27.217Z,2.33
2022-08-18T09:12:26.108Z,2.10
2022-08-18T09:15:58.673Z,2.20
2022-08-18T09:18:57.062Z,1.95
2022-08-18T09:21:42.774Z,2.25
2022-08-18T09:24:28.617Z,2.20
2022-08-18T09:27:19.833Z,2.10
2022-08-18T09:29:59.172Z,1.83
2022-08-18T09:32:58.178Z,1.73
2022-08-18T09:36:10.142Z,2.03
2022-08-18T09:39:08.026Z,2.30
2022-08-18T09:41:49.091Z,2.03
2022-08-18T09:45:01.661Z,2.30
2022-08-18T09:51:39.865Z,1.98
2022-08-18T09:54:29.310Z,2.00
2022-08-18T09:57:20.935Z,2.10
2022-08-18T10:00:28.540Z,1.95
2022-08-18T10:03:31.146Z,2.15
2022-08-18T10:06:17.107Z,1.92
2022-08-18T10:12:37.641Z,1.95
2022-08-18T10:15:52.903Z,1.77
2022-08-18T10:19:16.674Z,1.70
2022-08-18T10:22:10.042Z,1.52
2022-08-18T10:24:57.385Z,1.80
2022-08-18T10:27:58.017Z,1.60
2022-08-18T10:31:10.335Z,1.60
2022-08-18T10:34:16.107Z,1.60
2022-08-18T10:36:59.679Z,1.40
2022-08-18T10:39:47.799Z,1.92
2022-08-18T10:42:31.398Z,1.80
2022-08-18T10:45:11.743Z,1.55
2022-08-18T10:47:42.665Z,1.67
2022-08-18T10:50:27.893Z,2.28
2022-08-18T10:56:13.938Z,1.70
2022-08-18T10:59:17.303Z,1.95
2022-08-18T11:03:13.936Z,1.70
2022-08-18T11:05:28.998Z,1.63
2022-08-18T11:08:16.016Z,1.58
2022-08-18T11:13:56.663Z,1.95
2022-08-18T11:16:44.004Z,1.60
2022-08-18T11:19:18.644Z,1.80
2022-08-18T11:21:51.962Z,1.60
2022-08-18T11:24:24.875Z,1.40
2022-08-18T11:26:56.234Z,1.50
2022-08-18T11:29:33.535Z,1.40
2022-08-18T11:32:11.217Z,1.70
2022-08-18T11:34:53.159Z,1.50
2022-08-18T11:37:28.248Z,1.33
2022-08-18T11:41:09.729Z,1.40
2022-08-18T11:43:41.026Z,1.10
2022-08-18T11:46:33.518Z,1.30
2022-08-18T11:52:26.089Z,1.20
2022-08-18T11:55:16.783Z,1.23
2022-08-18T11:57:59.406Z,1.00
2022-08-18T12:00:54.767Z,1.20
2022-08-18T12:03:46.559Z,1.10
2022-08-18T12:09:54.081Z,1.13
2022-08-18T12:12:19.366Z,1.27
2022-08-18T12:15:11.867Z,1.13
2022-08-18T12:20:26.059Z,0.82
2022-08-18T12:23:00.376Z,0.90
2022-08-18T12:25:33.249Z,1.00
2022-08-18T12:28:02.077Z,0.70
2022-08-18T12:30:30.695Z,1.17
2022-08-18T12:33:07.811Z,0.98
2022-08-18T12:35:44.704Z,1.00
2022-08-18T12:38:15.875Z,1.20
2022-08-18T12:40:46.250Z,1.00
2022-08-18T12:43:25.384Z,1.08
2022-08-18T12:46:02.575Z,0.95
2022-08-18T12:48:32.939Z,1.30
2022-08-18T12:51:07.032Z,1.08
2022-08-18T12:53:38.034Z,1.20
2022-08-18T12:56:31.124Z,1.08
2022-08-18T12:59:05.129Z,1.10
2022-08-18T13:01:34.222Z,1.10
2022-08-18T13:04:12.455Z,1.10
2022-08-18T13:06:59.576Z,1.00
2022-08-18T13:09:35.143Z,1.15
2022-08-18T13:12:26.208Z,1.08
2022-08-18T13:14:56.916Z,1.07
2022-08-18T13:17:32.941Z,1.02
2022-08-18T13:20:20.325Z,1.20
2022-08-18T13:22:54.098Z,1.10
2022-08-18T13:25:33.222Z,1.00
2022-08-18T13:28:11.856Z,0.95
2022-08-18T13:30:45.419Z,0.90
2022-08-18T13:33:34.908Z,0.90
2022-08-18T13:36:03.315Z,0.95
2022-08-18T13:38:33.318Z,1.05
2022-08-18T13:41:06.438Z,1.08
2022-08-18T13:43:39.801Z,1.10
2022-08-18T13:46:15.966Z,1.10
2022-08-18T13:48:48.987Z,1.00
2022-08-18T13:51:23.697Z,1.20
2022-08-18T13:56:51.677Z,0.90
2022-08-18T13:59:22.697Z,1.10
2022-08-18T14:01:55.610Z,1.20
2022-08-18T14:04:28.062Z,0.95
2022-08-18T14:06:59.872Z,1.00
2022-08-18T14:09:37.391Z,1.13
2022-08-18T14:12:21.594Z,1.02
2022-08-18T14:14:55.584Z,0.90
2022-08-18T14:17:27.205Z,0.80
2022-08-18T14:20:15.378Z,1.25
2022-08-18T14:23:23.945Z,0.85
2022-08-18T14:26:16.024Z,1.10
2022-08-18T14:28:48.893Z,0.93
2022-08-18T14:31:23.126Z,1.02
2022-08-18T14:33:54.160Z,1.00
2022-08-18T14:36:30.340Z,1.00
2022-08-18T14:41:31.166Z,1.10
2022-08-18T14:44:12.238Z,0.80
2022-08-18T14:46:52.016Z,1.05
2022-08-18T14:49:28.315Z,1.00
2022-08-18T14:52:00.374Z,1.00
2022-08-18T14:54:32.072Z,1.00
2022-08-18T14:57:03.319Z,1.10
2022-08-18T14:59:37.488Z,1.17
2022-08-18T15:02:13.008Z,1.05
2022-08-18T15:04:53.020Z,1.10
2022-08-18T15:07:28.784Z,1.15
2022-08-18T15:10:14.835Z,1.17
2022-08-18T15:12:47.181Z,0.95
2022-08-18T15:15:18.929Z,0.80
2022-08-18T15:17:54.921Z,1.10
2022-08-18T15:20:29.745Z,1.00
2022-08-18T15:23:22.780Z,1.02
2022-08-18T15:26:00.557Z,1.10
2022-08-18T15:28:35.873Z,0.90
2022-08-18T15:31:16.871Z,1.00
2022-08-18T15:33:50.101Z,1.08
2022-08-18T15:36:24.125Z,1.00
2022-08-18T15:39:00.353Z,0.90
2022-08-18T15:41:34.877Z,1.10
2022-08-18T15:44:15.471Z,1.30
2022-08-18T15:46:47.308Z,1.05
2022-08-18T15:49:24.220Z,1.08
2022-08-18T15:51:54.426Z,1.10
2022-08-18T15:54:23.441Z,0.90
2022-08-18T15:56:58.278Z,0.80
2022-08-18T15:59:39.925Z,0.85
2022-08-18T16:02:11.378Z,0.80
2022-08-18T16:04:44.857Z,1.00
2022-08-18T16:07:17.878Z,0.90
2022-08-18T16:09:53.895Z,1.27
2022-08-18T16:12:22.751Z,1.00
2022-08-18T16:14:53.763Z,1.10
2022-08-18T16:17:24.094Z,1.00
2022-08-18T16:20:01.911Z,1.00
2022-08-18T16:22:33.201Z,1.08
2022-08-18T16:25:05.662Z,0.90
2022-08-18T16:27:34.731Z,0.80
2022-08-18T16:30:06.589Z,1.10
2022-08-18T16:32:36.103Z,0.90
2022-08-18T16:35:12.747Z,1.20
2022-08-18T16:37:42.248Z,0.90
2022-08-18T16:40:12.382Z,1.00
2022-08-18T16:42:41.657Z,0.90
2022-08-18T16:45:13.455Z,1.10
2022-08-18T16:47:42.988Z,1.20
2022-08-18T16:50:16.929Z,0.77
2022-08-18T16:52:46.403Z,1.20
2022-08-18T16:55:34.334Z,1.50
2022-08-18T16:58:20.917Z,1.25
2022-08-18T17:01:09.982Z,1.77
2022-08-18T17:03:59.359Z,1.15
2022-08-18T17:06:32.709Z,1.00
2022-08-18T17:09:09.924Z,1.05
2022-08-18T17:11:48.044Z,1.15
2022-08-18T17:14:22.310Z,1.30
2022-08-18T17:16:55.138Z,1.30
2022-08-18T17:19:25.338Z,1.20
2022-08-18T17:21:54.813Z,1.13
2022-08-18T17:24:31.131Z,1.30
2022-08-18T17:27:27.106Z,1.30
2022-08-18T17:30:09.218Z,1.20
2022-08-18T17:32:51.671Z,1.35
2022-08-18T17:35:29.612Z,1.48
2022-08-18T17:38:05.487Z,1.30
2022-08-18T17:40:40.963Z,1.60
2022-08-18T17:43:15.559Z,1.10
2022-08-18T17:45:48.383Z,1.30
2022-08-18T17:48:25.039Z,1.35
2022-08-18T17:51:18.474Z,1.27
2022-08-18T17:56:35.591Z,1.70
2022-08-18T17:59:46.344Z,1.67
2022-08-18T18:02:29.292Z,1.50
2022-08-18T18:07:42.481Z,1.58
2022-08-18T18:10:16.320Z,1.50
2022-08-18T18:12:45.692Z,1.50
2022-08-18T18:15:27.998Z,1.50
2022-08-18T18:17:57.909Z,1.58
2022-08-18T18:20:42.466Z,1.92
2022-08-18T18:23:24.909Z,1.45
2022-08-18T18:25:55.104Z,1.50
2022-08-18T18:28:35.232Z,1.42
2022-08-18T18:31:30.225Z,1.60
2022-08-18T18:34:06.547Z,1.50
2022-08-18T18:36:59.723Z,1.60
2022-08-18T18:39:36.114Z,1.65
2022-08-18T18:42:29.763Z,1.60
2022-08-18T18:45:04.471Z,1.88
2022-08-18T18:48:05.297Z,1.70
2022-08-18T18:50:55.880Z,1.92
2022-08-18T18:53:43.050Z,1.83
2022-08-18T18:56:32.126Z,1.88
2022-08-18T18:59:22.953Z,3.08
2022-08-18T19:02:13.482Z,2.50
2022-08-18T19:05:14.386Z,2.33
2022-08-18T19:08:03.514Z,2.10
2022-08-18T19:10:47.018Z,2.10
2022-08-18T19:13:31.783Z,2.10
2022-08-18T19:16:24.086Z,2.15
2022-08-18T19:19:38.335Z,2.20
2022-08-18T19:22:18.324Z,2.22
2022-08-18T19:25:04.624Z,2.20
2022-08-18T19:27:50.409Z,2.25
2022-08-18T19:30:21.816Z,2.63
2022-08-18T19:32:56.067Z,2.17
2022-08-18T19:35:42.737Z,2.00
2022-08-18T19:38:23.270Z,2.45
2022-08-18T19:41:00.944Z,2.67
2022-08-18T19:43:43.389Z,2.65
2022-08-18T19:46:29.913Z,2.13
2022-08-18T19:49:13.447Z,2.53
2022-08-18T19:51:49.330Z,2.63
2022-08-18T19:54:46.964Z,2.78
2022-08-18T19:57:46.292Z,3.00
2022-08-18T20:00:29.935Z,2.72
2022-08-18T20:03:26.568Z,3.20
2022-08-18T20:06:34.939Z,2.95
2022-08-18T20:09:35.736Z,2.63
2022-08-18T20:12:22.388Z,2.35
2022-08-18T20:15:09.862Z,3.35
2022-08-18T20:18:05.188Z,2.75
2022-08-18T20:20:39.095Z,2.92
2022-08-18T20:23:35.217Z,3.35
2022-08-18T20:26:04.407Z,2.83
2022-08-18T20:28:43.354Z,3.10
2022-08-18T20:31:18.995Z,2.88
2022-08-18T20:34:14.094Z,2.90
2022-08-18T20:36:46.814Z,3.22
2022-08-18T20:39:43.273Z,3.00
2022-08-18T20:42:55.913Z,3.15
2022-08-18T20:45:36.641Z,3.30
2022-08-18T20:48:28.939Z,3.83
2022-08-18T20:51:21.478Z,3.45
2022-08-18T20:54:19.445Z,3.15
2022-08-18T20:59:31.638Z,3.60
2022-08-18T21:02:05.354Z,3.50
2022-08-18T21:04:56.566Z,3.85
2022-08-18T21:07:36.018Z,3.10
2022-08-18T21:10:19.342Z,3.53
2022-08-18T21:12:55.822Z,3.50
2022-08-18T21:15:36.868Z,6.35
2022-08-18T21:18:21.622Z,4.63
2022-08-18T21:21:06.689Z,4.30
2022-08-18T21:23:42.102Z,5.63
2022-08-18T21:26:18.824Z,3.70
2022-08-18T21:28:58.703Z,4.35
2022-08-18T21:31:44.462Z,3.78
2022-08-18T21:34:29.705Z,4.07
2022-08-18T21:37:04.390Z,4.78
2022-08-18T21:39:35.346Z,4.10
2022-08-18T21:42:04.434Z,4.20
2022-08-18T21:44:44.755Z,4.00
2022-08-18T21:47:26.442Z,3.83
2022-08-18T21:50:10.049Z,4.10
2022-08-18T21:52:51.083Z,4.20
2022-08-18T21:55:32.091Z,4.00
2022-08-18T21:58:06.986Z,4.45
2022-08-18T22:00:42.255Z,4.45
2022-08-18T22:06:00.017Z,4.50
2022-08-18T22:08:36.308Z,5.68
2022-08-18T22:12:01.351Z,4.40
2022-08-18T22:14:53.729Z,4.43
2022-08-18T22:17:59.881Z,4.72
2022-08-18T22:20:52.032Z,4.45
2022-08-18T22:23:57.782Z,4.80
2022-08-18T22:26:33.978Z,5.20
2022-08-18T22:29:13.624Z,4.85
2022-08-18T22:31:46.991Z,5.22
2022-08-18T22:34:28.218Z,5.32
2022-08-18T22:37:04.412Z,5.97
2022-08-18T22:39:38.061Z,6.25
2022-08-18T22:42:11.518Z,5.72
2022-08-18T22:44:42.972Z,6.03
2022-08-18T22:47:13.349Z,7.40
2022-08-18T22:49:45.255Z,7.97
2022-08-18T22:52:21.685Z,8.80
2022-08-18T22:55:06.723Z,9.25
2022-08-18T22:57:37.592Z,9.52
2022-08-18T23:00:11.652Z,10.18
2022-08-18T23:02:44.657Z,9.90
2022-08-18T23:05:13.927Z,9.82
2022-08-18T23:07:47.461Z,10.20
2022-08-18T23:10:17.533Z,10.23
2022-08-18T23:12:49.614Z,10.05
2022-08-18T23:15:21.045Z,10.57
2022-08-18T23:17:50.441Z,10.43
2022-08-18T23:20:22.914Z,10.73
2022-08-18T23:22:57.334Z,9.85
2022-08-18T23:25:26.422Z,10.63
2022-08-18T23:28:00.026Z,10.07
2022-08-18T23:30:30.605Z,10.90
2022-08-18T23:32:59.523Z,9.85
2022-08-18T23:35:29.463Z,10.90
2022-08-18T23:37:58.164Z,9.95
2022-08-18T23:40:27.554Z,9.15
2022-08-18T23:42:59.201Z,9.88
2022-08-18T23:45:29.157Z,10.40
2022-08-18T23:47:59.554Z,10.05
2022-08-18T23:50:29.770Z,10.60
2022-08-18T23:53:00.085Z,11.68
2022-08-18T23:55:28.937Z,11.00
2022-08-18T23:58:00.932Z,12.75
